Time,TemperatureF,DewpointF,PressureIn,WindDirection,WindDirectionDegrees,WindSpeedMPH,WindSpeedGustMPH,Humidity,HourlyPrecipIn,Conditions,Clouds,dailyrainin,SoftwareType,DateUTC
2013-02-28 00:02:00,35.0,-99.9,-100.00,North,1,0.0,1.0,-999,0.00,,,0.56,,2013-02-28 05:02:00,
2013-02-28 00:12:00,35.0,-99.9,-100.00,North,1,0.0,1.0,-999,0.00,,,0.56,,2013-02-28 05:12:00,
2013-02-28 00:22:00,35.0,-99.9,-100.00,North,2,0.0,0.0,-999,0.00,,,0.56,,2013-02-28 05:22:00,
2013-02-28 00:32:00,35.0,-99.9,-100.00,North,2,0.0,0.0,-999,0.00,,,0.56,,2013-02-28 05:32:00,
2013-02-28 00:43:00,35.0,-99.9,-100.00,North,2,0.0,0.0,-999,0.00,,,0.56,,2013-02-28 05:43:00,
2013-02-28 00:52:00,35.0,-99.9,-100.00,North,1,0.0,0.0,-999,0.00,,,0.56,,2013-02-28 05:52:00,
2013-02-28 01:02:00,35.0,-99.9,-100.00,North,1,0.0,0.0,-999,0.00,,,0.56,,2013-02-28 06:02:00,
2013-02-28 01:11:00,35.0,-99.9,-100.00,North,1,0.0,0.0,-999,0.00,,,0.56,,2013-02-28 06:11:00,
2013-02-28 01:22:00,35.0,-99.9,-100.00,North,1,0.0,0.0,-999,0.00,,,0.56,,2013-02-28 06:22:00,
2013-02-28 01:32:00,35.0,-99.9,-100.00,North,1,0.0,0.0,-999,0.00,,,0.56,,2013-02-28 06:32:00,
2013-02-28 01:42:00,35.0,-99.9,-100.00,North,1,0.0,0.0,-999,0.00,,,0.56,,2013-02-28 06:42:00,
2013-02-28 01:52:00,35.0,-99.9,-100.00,North,1,0.0,0.0,-999,0.00,,,0.56,,2013-02-28 06:52:00,
2013-02-28 02:01:00,35.0,-99.9,-100.00,North,1,0.0,0.0,-999,0.00,,,0.56,,2013-02-28 07:01:00,
2013-02-28 02:11:00,35.0,-99.9,-100.00,North,1,0.0,0.0,-999,0.00,,,0.56,,2013-02-28 07:11:00,
2013-02-28 02:22:00,35.0,-99.9,-100.00,North,1,0.0,0.0,-999,0.00,,,0.56,,2013-02-28 07:22:00,
2013-02-28 02:32:00,35.0,-99.9,-100.00,North,2,0.0,0.0,-999,0.00,,,0.56,,2013-02-28 07:32:00,
2013-02-28 02:42:00,35.0,-99.9,-100.00,North,2,0.0,0.0,-999,0.00,,,0.56,,2013-02-28 07:42:00,
2013-02-28 02:52:00,35.0,-99.9,-100.00,North,1,0.0,0.0,-999,0.00,,,0.56,,2013-02-28 07:52:00,
2013-02-28 03:01:00,35.0,-99.9,-100.00,North,1,0.0,0.0,-999,0.01,,,0.57,,2013-02-28 08:01:00,
2013-02-28 03:12:00,35.0,-99.9,-100.00,North,1,0.0,0.0,-999,0.01,,,0.57,,2013-02-28 08:12:00,
2013-02-28 03:22:00,35.0,-99.9,-100.00,North,1,0.0,2.0,-999,0.02,,,0.58,,2013-02-28 08:22:00,
2013-02-28 03:32:00,36.0,-99.9,-100.00,North,1,0.0,0.0,-999,0.02,,,0.58,,2013-02-28 08:32:00,
2013-02-28 03:42:00,36.0,-99.9,-100.00,North,1,0.0,0.0,-999,0.02,,,0.58,,2013-02-28 08:42:00,
2013-02-28 03:53:00,36.0,-99.9,-100.00,North,1,0.0,0.0,-999,0.02,,,0.58,,2013-02-28 08:53:00,
2013-02-28 04:04:00,36.0,-99.9,-100.00,North,2,0.0,0.0,-999,0.01,,,0.58,,2013-02-28 09:04:00,
2013-02-28 04:12:00,36.0,-99.9,-100.00,North,2,0.0,0.0,-999,0.01,,,0.58,,2013-02-28 09:12:00,
2013-02-28 04:22:00,36.0,-99.9,-100.00,North,1,0.0,0.0,-999,0.00,,,0.58,,2013-02-28 09:22:00,
2013-02-28 04:32:00,36.0,-99.9,-100.00,North,1,0.0,0.0,-999,0.00,,,0.58,,2013-02-28 09:32:00,
2013-02-28 04:42:00,36.0,-99.9,-100.00,North,1,0.0,0.0,-999,0.00,,,0.58,,2013-02-28 09:42:00,
2013-02-28 04:53:00,36.0,-99.9,-100.00,North,1,0.0,0.0,-999,0.00,,,0.58,,2013-02-28 09:53:00,
2013-02-28 05:02:00,35.0,-99.9,-100.00,North,1,0.0,0.0,-999,0.00,,,0.58,,2013-02-28 10:02:00,
2013-02-28 05:12:00,35.0,-99.9,-100.00,North,1,0.0,0.0,-999,0.00,,,0.58,,2013-02-28 10:12:00,
2013-02-28 05:22:00,35.0,-99.9,-100.00,North,1,0.0,0.0,-999,0.00,,,0.58,,2013-02-28 10:22:00,
2013-02-28 05:32:00,35.0,-99.9,-100.00,North,1,0.0,0.0,-999,0.00,,,0.57,,2013-02-28 10:32:00,
2013-02-28 05:42:00,35.0,-99.9,-100.00,North,1,0.0,0.0,-999,0.00,,,0.57,,2013-02-28 10:42:00,
2013-02-28 05:52:00,35.0,-99.9,-100.00,North,1,0.0,0.0,-999,0.01,,,0.57,,2013-02-28 10:52:00,
2013-02-28 06:02:00,35.0,-99.9,-100.00,North,1,0.0,0.0,-999,0.01,,,0.57,,2013-02-28 11:02:00,
2013-02-28 06:12:00,35.0,-99.9,-100.00,North,1,0.0,0.0,-999,0.01,,,0.57,,2013-02-28 11:12:00,
2013-02-28 06:22:00,35.0,-99.9,-100.00,North,2,0.0,0.0,-999,0.01,,,0.57,,2013-02-28 11:22:00,
2013-02-28 06:32:00,34.0,-99.9,-100.00,North,1,0.0,0.0,-999,0.01,,,0.57,,2013-02-28 11:32:00,
2013-02-28 06:42:00,34.0,-99.9,-100.00,North,1,0.0,0.0,-999,0.01,,,0.57,,2013-02-28 11:42:00,
2013-02-28 06:53:00,35.0,-99.9,-100.00,North,1,0.0,0.0,-999,0.00,,,0.57,,2013-02-28 11:53:00,
2013-02-28 07:02:00,35.0,-99.9,-100.00,North,1,0.0,0.0,-999,0.00,,,0.57,,2013-02-28 12:02:00,
2013-02-28 07:12:00,35.0,-99.9,-100.00,North,1,0.0,0.0,-999,0.00,,,0.57,,2013-02-28 12:12:00,
2013-02-28 07:22:00,35.0,-99.9,-100.00,North,1,0.0,0.0,-999,0.00,,,0.57,,2013-02-28 12:22:00,
2013-02-28 07:32:00,35.0,-99.9,-100.00,North,1,0.0,0.0,-999,0.00,,,0.54,,2013-02-28 12:32:00,
2013-02-28 07:43:00,35.0,-99.9,-100.00,North,1,0.0,0.0,-999,0.00,,,0.54,,2013-02-28 12:43:00,
2013-02-28 07:53:00,36.0,-99.9,-100.00,North,1,0.0,2.0,-999,0.00,,,0.52,,2013-02-28 12:53:00,
2013-02-28 08:02:00,37.0,-99.9,-100.00,North,1,0.0,0.0,-999,0.00,,,0.49,,2013-02-28 13:02:00,
2013-02-28 08:12:00,37.0,-99.9,-100.00,North,1,0.0,0.0,-999,0.00,,,0.49,,2013-02-28 13:12:00,
2013-02-28 08:22:00,37.0,-99.9,-100.00,North,1,0.0,3.0,-999,0.00,,,0.47,,2013-02-28 13:22:00,
2013-02-28 08:32:00,39.0,-99.9,-100.00,North,1,0.0,0.0,-999,0.00,,,0.44,,2013-02-28 13:32:00,
2013-02-28 08:42:00,39.0,-99.9,-100.00,North,1,0.0,0.0,-999,0.00,,,0.44,,2013-02-28 13:42:00,
2013-02-28 08:52:00,40.0,-99.9,-100.00,North,2,0.0,1.0,-999,0.00,,,0.42,,2013-02-28 13:52:00,
2013-02-28 09:02:00,40.0,-99.9,-100.00,North,2,0.0,1.0,-999,0.00,,,0.42,,2013-02-28 14:02:00,
2013-02-28 09:12:00,40.0,-99.9,-100.00,North,2,0.0,1.0,-999,0.00,,,0.42,,2013-02-28 14:12:00,
2013-02-28 09:22:00,42.0,-99.9,-100.00,North,2,1.0,3.0,-999,0.00,,,0.39,,2013-02-28 14:22:00,
2013-02-28 09:32:00,42.0,-99.9,-100.00,North,2,2.0,6.0,-999,0.00,,,0.35,,2013-02-28 14:32:00,
2013-02-28 09:42:00,42.0,-99.9,-100.00,North,2,2.0,6.0,-999,0.00,,,0.35,,2013-02-28 14:42:00,
2013-02-28 09:52:00,42.0,-99.9,-100.00,North,2,2.0,6.0,-999,0.00,,,0.33,,2013-02-28 14:52:00,
2013-02-28 10:02:00,46.0,-99.9,-100.00,North,1,1.0,5.0,-999,0.00,,,0.30,,2013-02-28 15:02:00,
2013-02-28 10:11:00,46.0,-99.9,-100.00,North,1,1.0,5.0,-999,0.00,,,0.30,,2013-02-28 15:11:00,
2013-02-28 10:22:00,48.0,-99.9,-100.00,North,2,1.0,5.0,-999,0.00,,,0.16,,2013-02-28 15:22:00,
2013-02-28 10:32:00,48.0,-99.9,-100.00,North,2,1.0,5.0,-999,0.00,,,0.15,,2013-02-28 15:32:00,
2013-02-28 10:42:00,48.0,-99.9,-100.00,North,2,1.0,5.0,-999,0.00,,,0.15,,2013-02-28 15:42:00,
2013-02-28 10:53:00,48.0,-99.9,-100.00,North,2,2.0,6.0,-999,0.00,,,0.15,,2013-02-28 15:53:00,
2013-02-28 11:02:00,51.0,-99.9,-100.00,North,2,1.0,5.0,-999,0.00,,,0.13,,2013-02-28 16:02:00,
2013-02-28 11:12:00,51.0,-99.9,-100.00,North,2,1.0,5.0,-999,0.00,,,0.13,,2013-02-28 16:12:00,
2013-02-28 11:22:00,52.0,-99.9,-100.00,North,2,2.0,6.0,-999,0.00,,,0.13,,2013-02-28 16:22:00,
2013-02-28 11:32:00,50.0,-99.9,-100.00,North,3,5.0,7.0,-999,0.00,,,0.13,,2013-02-28 16:32:00,
2013-02-28 11:43:00,50.0,-99.9,-100.00,North,3,5.0,7.0,-999,0.00,,,0.13,,2013-02-28 16:43:00,
2013-02-28 11:53:00,50.0,-99.9,-100.00,North,3,5.0,7.0,-999,0.00,,,0.13,,2013-02-28 16:53:00,
2013-02-28 12:02:00,49.0,-99.9,-100.00,North,2,2.0,7.0,-999,0.00,,,0.13,,2013-02-28 17:02:00,
2013-02-28 12:12:00,49.0,-99.9,-100.00,North,2,2.0,6.0,-999,0.00,,,0.11,,2013-02-28 17:12:00,
2013-02-28 12:22:00,49.0,-99.9,-100.00,North,2,2.0,6.0,-999,0.00,,,0.11,,2013-02-28 17:22:00,
2013-02-28 12:33:00,49.0,-99.9,-100.00,North,1,1.0,5.0,-999,0.00,,,0.10,,2013-02-28 17:33:00,
2013-02-28 12:42:00,49.0,-99.9,-100.00,North,1,1.0,5.0,-999,0.00,,,0.10,,2013-02-28 17:42:00,
2013-02-28 12:53:00,49.0,-99.9,-100.00,North,1,1.0,5.0,-999,0.00,,,0.10,,2013-02-28 17:53:00,
2013-02-28 13:03:00,49.0,-99.9,-100.00,North,2,4.0,12.0,-999,0.00,,,0.09,,2013-02-28 18:03:00,
2013-02-28 13:12:00,49.0,-99.9,-100.00,North,2,4.0,12.0,-999,0.00,,,0.09,,2013-02-28 18:12:00,
2013-02-28 13:22:00,47.0,-99.9,-100.00,North,2,0.0,8.0,-999,0.00,,,0.09,,2013-02-28 18:22:00,
2013-02-28 13:32:00,46.0,-99.9,-100.00,North,1,3.0,5.0,-999,0.00,,,0.09,,2013-02-28 18:32:00,
2013-02-28 13:43:00,46.0,-99.9,-100.00,North,1,3.0,5.0,-999,0.00,,,0.09,,2013-02-28 18:43:00,
2013-02-28 13:53:00,46.0,-99.9,-100.00,North,1,3.0,5.0,-999,0.00,,,0.09,,2013-02-28 18:53:00,
2013-02-28 14:02:00,48.0,-99.9,-100.00,North,2,1.0,5.0,-999,0.00,,,0.09,,2013-02-28 19:02:00,
2013-02-28 14:12:00,48.0,-99.9,-100.00,North,2,1.0,5.0,-999,0.00,,,0.09,,2013-02-28 19:12:00,
2013-02-28 14:22:00,48.0,-99.9,-100.00,North,2,1.0,6.0,-999,0.00,,,0.08,,2013-02-28 19:22:00,
2013-02-28 14:32:00,47.0,-99.9,-100.00,North,2,2.0,5.0,-999,0.00,,,0.08,,2013-02-28 19:32:00,
2013-02-28 14:42:00,47.0,-99.9,-100.00,North,2,2.0,5.0,-999,0.00,,,0.08,,2013-02-28 19:42:00,
2013-02-28 14:52:00,46.0,-99.9,-100.00,North,1,2.0,5.0,-999,0.00,,,0.08,,2013-02-28 19:52:00,
2013-02-28 15:02:00,45.0,-99.9,-100.00,North,1,0.0,6.0,-999,0.00,,,0.07,,2013-02-28 20:02:00,
2013-02-28 15:12:00,45.0,-99.9,-100.00,North,1,0.0,6.0,-999,0.00,,,0.07,,2013-02-28 20:12:00,
2013-02-28 15:22:00,44.0,-99.9,-100.00,North,1,0.0,6.0,-999,0.00,,,0.07,,2013-02-28 20:22:00,
2013-02-28 15:32:00,44.0,-99.9,-100.00,North,2,2.0,8.0,-999,0.00,,,0.06,,2013-02-28 20:32:00,
2013-02-28 15:42:00,44.0,-99.9,-100.00,North,2,2.0,8.0,-999,0.00,,,0.06,,2013-02-28 20:42:00,
2013-02-28 15:52:00,43.0,-99.9,-100.00,North,1,2.0,7.0,-999,0.00,,,0.06,,2013-02-28 20:52:00,
2013-02-28 16:02:00,42.0,-99.9,-100.00,North,1,2.0,8.0,-999,0.00,,,0.06,,2013-02-28 21:02:00,
2013-02-28 16:11:00,42.0,-99.9,-100.00,North,1,2.0,8.0,-999,0.00,,,0.06,,2013-02-28 21:11:00,
2013-02-28 16:22:00,42.0,-99.9,-100.00,North,1,2.0,9.0,-999,0.00,,,0.06,,2013-02-28 21:22:00,
2013-02-28 16:32:00,41.0,-99.9,-100.00,North,2,1.0,6.0,-999,0.00,,,0.05,,2013-02-28 21:32:00,
2013-02-28 16:42:00,41.0,-99.9,-100.00,North,2,1.0,6.0,-999,0.00,,,0.05,,2013-02-28 21:42:00,
2013-02-28 16:52:00,41.0,-99.9,-100.00,North,2,0.0,3.0,-999,0.00,,,0.05,,2013-02-28 21:52:00,
2013-02-28 17:02:00,41.0,-99.9,-100.00,North,1,0.0,3.0,-999,0.00,,,0.04,,2013-02-28 22:02:00,
2013-02-28 17:12:00,41.0,-99.9,-100.00,North,1,0.0,3.0,-999,0.00,,,0.04,,2013-02-28 22:12:00,
2013-02-28 17:22:00,41.0,-99.9,-100.00,North,1,0.0,3.0,-999,0.00,,,0.04,,2013-02-28 22:22:00,
2013-02-28 17:32:00,40.0,-99.9,-100.00,North,1,0.0,1.0,-999,0.00,,,0.04,,2013-02-28 22:32:00,
2013-02-28 17:42:00,40.0,-99.9,-100.00,North,1,0.0,1.0,-999,0.00,,,0.04,,2013-02-28 22:42:00,
2013-02-28 17:52:00,39.0,-99.9,-100.00,North,1,1.0,3.0,-999,0.00,,,0.04,,2013-02-28 22:52:00,
2013-02-28 18:02:00,39.0,-99.9,-100.00,North,1,1.0,6.0,-999,0.00,,,0.03,,2013-02-28 23:02:00,
2013-02-28 18:12:00,39.0,-99.9,-100.00,North,1,1.0,6.0,-999,0.00,,,0.03,,2013-02-28 23:12:00,
2013-02-28 18:22:00,39.0,-99.9,-100.00,North,1,2.0,6.0,-999,0.00,,,0.03,,2013-02-28 23:22:00,
2013-02-28 18:32:00,39.0,-99.9,-100.00,North,1,0.0,3.0,-999,0.00,,,0.03,,2013-02-28 23:32:00,
2013-02-28 18:42:00,39.0,-99.9,-100.00,North,1,0.0,3.0,-999,0.00,,,0.03,,2013-02-28 23:42:00,
2013-02-28 18:53:00,39.0,-99.9,-100.00,North,1,0.0,3.0,-999,0.00,,,0.03,,2013-02-28 23:53:00,
2013-02-28 19:02:00,38.0,-99.9,-100.00,North,1,0.0,3.0,-999,0.00,,,0.03,,2013-03-01 00:02:00,
2013-02-28 19:12:00,38.0,-99.9,-100.00,North,1,0.0,3.0,-999,0.00,,,0.03,,2013-03-01 00:12:00,
2013-02-28 19:23:00,38.0,-99.9,-100.00,North,2,0.0,3.0,-999,0.00,,,0.03,,2013-03-01 00:23:00,
2013-02-28 19:32:00,38.0,-99.9,-100.00,North,1,1.0,3.0,-999,0.00,,,0.03,,2013-03-01 00:32:00,
2013-02-28 19:42:00,38.0,-99.9,-100.00,North,1,1.0,3.0,-999,0.00,,,0.03,,2013-03-01 00:42:00,
2013-02-28 19:52:00,37.0,-99.9,-100.00,North,1,0.0,3.0,-999,0.00,,,0.03,,2013-03-01 00:52:00,
2013-02-28 20:02:00,37.0,-99.9,-100.00,North,1,0.0,1.0,-999,0.00,,,0.03,,2013-03-01 01:02:00,
2013-02-28 20:11:00,37.0,-99.9,-100.00,North,1,0.0,1.0,-999,0.00,,,0.03,,2013-03-01 01:11:00,
2013-02-28 20:22:00,37.0,-99.9,-100.00,North,1,1.0,3.0,-999,0.00,,,0.03,,2013-03-01 01:22:00,
2013-02-28 20:32:00,37.0,-99.9,-100.00,North,1,0.0,2.0,-999,0.00,,,0.03,,2013-03-01 01:32:00,
2013-02-28 20:42:00,37.0,-99.9,-100.00,North,1,0.0,2.0,-999,0.00,,,0.03,,2013-03-01 01:42:00,
2013-02-28 20:52:00,37.0,-99.9,-100.00,North,1,0.0,2.0,-999,0.00,,,0.03,,2013-03-01 01:52:00,
2013-02-28 21:02:00,36.0,-99.9,-100.00,North,1,0.0,0.0,-999,0.00,,,0.03,,2013-03-01 02:02:00,
2013-02-28 21:11:00,36.0,-99.9,-100.00,North,1,0.0,0.0,-999,0.00,,,0.03,,2013-03-01 02:11:00,
2013-02-28 21:22:00,36.0,-99.9,-100.00,North,1,0.0,0.0,-999,0.00,,,0.03,,2013-03-01 02:22:00,
2013-02-28 21:32:00,37.0,-99.9,-100.00,North,1,0.0,2.0,-999,0.00,,,0.03,,2013-03-01 02:32:00,
2013-02-28 21:42:00,37.0,-99.9,-100.00,North,1,0.0,2.0,-999,0.00,,,0.03,,2013-03-01 02:42:00,
2013-02-28 21:52:00,37.0,-99.9,-100.00,North,1,0.0,2.0,-999,0.00,,,0.03,,2013-03-01 02:52:00,
2013-02-28 22:02:00,37.0,-99.9,-100.00,North,1,0.0,0.0,-999,0.00,,,0.03,,2013-03-01 03:02:00,
2013-02-28 22:12:00,37.0,-99.9,-100.00,North,1,0.0,0.0,-999,0.00,,,0.03,,2013-03-01 03:12:00,
2013-02-28 22:22:00,37.0,-99.9,-100.00,North,1,0.0,0.0,-999,0.00,,,0.03,,2013-03-01 03:22:00,
2013-02-28 22:32:00,36.0,-99.9,-100.00,North,1,0.0,2.0,-999,0.00,,,0.03,,2013-03-01 03:32:00,
2013-02-28 22:42:00,36.0,-99.9,-100.00,North,1,0.0,2.0,-999,0.00,,,0.03,,2013-03-01 03:42:00,
2013-02-28 22:52:00,36.0,-99.9,-100.00,North,1,0.0,0.0,-999,0.00,,,0.03,,2013-03-01 03:52:00,
2013-02-28 23:02:00,36.0,-99.9,-100.00,North,1,0.0,0.0,-999,0.00,,,0.03,,2013-03-01 04:02:00,
2013-02-28 23:12:00,36.0,-99.9,-100.00,North,1,0.0,0.0,-999,0.00,,,0.03,,2013-03-01 04:12:00,
2013-02-28 23:22:00,36.0,-99.9,-100.00,North,1,0.0,0.0,-999,0.00,,,0.03,,2013-03-01 04:22:00,
2013-02-28 23:32:00,36.0,-99.9,-100.00,North,1,0.0,0.0,-999,0.00,,,0.03,,2013-03-01 04:32:00,
2013-02-28 23:42:00,36.0,-99.9,-100.00,North,1,0.0,0.0,-999,0.00,,,0.03,,2013-03-01 04:42:00,
2013-02-28 23:52:00,35.0,-99.9,-100.00,North,1,0.0,0.0,-999,0.00,,,0.03,,2013-03-01 04:52:00,